sensor_id;sensor_type;location;lat;lon;timestamp;P1;durP1;ratioP1;P2;durP2;ratioP2
63943;SDS011;50121;51.218;7.664;2024-01-30T00:01:57;14.93;;;11.65;;
63943;SDS011;50121;51.218;7.664;2024-01-30T00:04:25;16.60;;;10.73;;
63943;SDS011;50121;51.218;7.664;2024-01-30T00:06:55;16.77;;;11.10;;
63943;SDS011;50121;51.218;7.664;2024-01-30T00:09:26;15.38;;;11.52;;
63943;SDS011;50121;51.218;7.664;2024-01-30T00:11:54;14.50;;;11.73;;
63943;SDS011;50121;51.218;7.664;2024-01-30T00:14:23;14.27;;;11.60;;
63943;SDS011;50121;51.218;7.664;2024-01-30T00:16:51;14.93;;;11.27;;
63943;SDS011;50121;51.218;7.664;2024-01-30T00:19:22;15.05;;;11.95;;
63943;SDS011;50121;51.218;7.664;2024-01-30T00:21:51;15.40;;;11.57;;
63943;SDS011;50121;51.218;7.664;2024-01-30T00:24:20;16.33;;;11.75;;
63943;SDS011;50121;51.218;7.664;2024-01-30T00:29:28;15.80;;;10.95;;
63943;SDS011;50121;51.218;7.664;2024-01-30T00:31:59;13.10;;;11.70;;
63943;SDS011;50121;51.218;7.664;2024-01-30T00:34:27;13.75;;;11.32;;
63943;SDS011;50121;51.218;7.664;2024-01-30T00:36:55;15.82;;;11.07;;
63943;SDS011;50121;51.218;7.664;2024-01-30T00:39:24;16.00;;;11.07;;
63943;SDS011;50121;51.218;7.664;2024-01-30T00:41:57;14.43;;;10.90;;
63943;SDS011;50121;51.218;7.664;2024-01-30T00:44:25;17.83;;;12.45;;
63943;SDS011;50121;51.218;7.664;2024-01-30T00:46:56;17.50;;;12.15;;
63943;SDS011;50121;51.218;7.664;2024-01-30T00:49:23;12.95;;;11.55;;
63943;SDS011;50121;51.218;7.664;2024-01-30T00:51:54;14.95;;;11.52;;
63943;SDS011;50121;51.218;7.664;2024-01-30T00:54:22;13.32;;;11.23;;
63943;SDS011;50121;51.218;7.664;2024-01-30T00:56:53;14.45;;;11.05;;
63943;SDS011;50121;51.218;7.664;2024-01-30T00:59:22;13.35;;;11.45;;
63943;SDS011;50121;51.218;7.664;2024-01-30T01:01:50;17.13;;;10.70;;
63943;SDS011;50121;51.218;7.664;2024-01-30T01:04:18;15.90;;;10.90;;
63943;SDS011;50121;51.218;7.664;2024-01-30T01:06:48;13.52;;;11.52;;
63943;SDS011;50121;51.218;7.664;2024-01-30T01:09:16;13.25;;;11.02;;
63943;SDS011;50121;51.218;7.664;2024-01-30T01:11:44;12.68;;;11.30;;
63943;SDS011;50121;51.218;7.664;2024-01-30T01:14:11;14.13;;;11.05;;
63943;SDS011;50121;51.218;7.664;2024-01-30T01:16:39;12.55;;;10.38;;
63943;SDS011;50121;51.218;7.664;2024-01-30T01:19:07;14.57;;;11.05;;
63943;SDS011;50121;51.218;7.664;2024-01-30T01:21:36;13.25;;;10.68;;
63943;SDS011;50121;51.218;7.664;2024-01-30T01:24:04;13.52;;;10.52;;
63943;SDS011;50121;51.218;7.664;2024-01-30T01:26:34;11.65;;;10.48;;
63943;SDS011;50121;51.218;7.664;2024-01-30T01:29:03;13.00;;;11.18;;
63943;SDS011;50121;51.218;7.664;2024-01-30T01:31:36;14.90;;;11.02;;
63943;SDS011;50121;51.218;7.664;2024-01-30T01:34:10;13.70;;;11.10;;
63943;SDS011;50121;51.218;7.664;2024-01-30T01:36:39;12.40;;;11.00;;
63943;SDS011;50121;51.218;7.664;2024-01-30T01:39:07;13.80;;;10.45;;
63943;SDS011;50121;51.218;7.664;2024-01-30T01:41:35;15.90;;;10.93;;
63943;SDS011;50121;51.218;7.664;2024-01-30T01:44:03;12.75;;;10.48;;
63943;SDS011;50121;51.218;7.664;2024-01-30T01:46:56;13.30;;;11.00;;
63943;SDS011;50121;51.218;7.664;2024-01-30T01:49:27;16.35;;;10.80;;
63943;SDS011;50121;51.218;7.664;2024-01-30T01:51:56;16.60;;;10.65;;
63943;SDS011;50121;51.218;7.664;2024-01-30T01:54:25;12.38;;;10.90;;
63943;SDS011;50121;51.218;7.664;2024-01-30T01:56:54;12.95;;;10.73;;
63943;SDS011;50121;51.218;7.664;2024-01-30T01:59:25;11.95;;;10.27;;
63943;SDS011;50121;51.218;7.664;2024-01-30T02:01:58;12.85;;;10.63;;
63943;SDS011;50121;51.218;7.664;2024-01-30T02:04:31;11.60;;;10.15;;
63943;SDS011;50121;51.218;7.664;2024-01-30T02:07:09;16.23;;;10.55;;
63943;SDS011;50121;51.218;7.664;2024-01-30T02:09:47;13.05;;;10.35;;
63943;SDS011;50121;51.218;7.664;2024-01-30T02:12:14;12.02;;;9.95;;
63943;SDS011;50121;51.218;7.664;2024-01-30T02:14:48;12.77;;;10.13;;
63943;SDS011;50121;51.218;7.664;2024-01-30T02:17:20;12.15;;;9.55;;
63943;SDS011;50121;51.218;7.664;2024-01-30T02:22:27;14.43;;;10.10;;
63943;SDS011;50121;51.218;7.664;2024-01-30T02:24:55;11.68;;;10.07;;
63943;SDS011;50121;51.218;7.664;2024-01-30T02:27:23;11.02;;;9.80;;
63943;SDS011;50121;51.218;7.664;2024-01-30T02:29:51;14.50;;;10.45;;
63943;SDS011;50121;51.218;7.664;2024-01-30T02:32:19;12.52;;;9.93;;
63943;SDS011;50121;51.218;7.664;2024-01-30T02:34:52;13.65;;;9.65;;
63943;SDS011;50121;51.218;7.664;2024-01-30T02:37:41;11.27;;;9.75;;
63943;SDS011;50121;51.218;7.664;2024-01-30T02:40:08;13.57;;;9.60;;
63943;SDS011;50121;51.218;7.664;2024-01-30T02:42:36;11.75;;;10.27;;
63943;SDS011;50121;51.218;7.664;2024-01-30T02:45:06;11.73;;;10.13;;
63943;SDS011;50121;51.218;7.664;2024-01-30T02:47:38;11.60;;;9.40;;
63943;SDS011;50121;51.218;7.664;2024-01-30T02:50:10;11.95;;;9.15;;
63943;SDS011;50121;51.218;7.664;2024-01-30T02:52:44;14.27;;;9.82;;
63943;SDS011;50121;51.218;7.664;2024-01-30T02:55:13;11.73;;;9.43;;
63943;SDS011;50121;51.218;7.664;2024-01-30T02:57:44;13.13;;;9.38;;
63943;SDS011;50121;51.218;7.664;2024-01-30T03:00:12;12.00;;;9.13;;
63943;SDS011;50121;51.218;7.664;2024-01-30T03:02:43;12.45;;;8.73;;
63943;SDS011;50121;51.218;7.664;2024-01-30T03:05:11;10.20;;;8.88;;
63943;SDS011;50121;51.218;7.664;2024-01-30T03:07:46;12.07;;;9.02;;
63943;SDS011;50121;51.218;7.664;2024-01-30T03:10:15;10.38;;;9.27;;
63943;SDS011;50121;51.218;7.664;2024-01-30T03:12:43;10.68;;;9.48;;
63943;SDS011;50121;51.218;7.664;2024-01-30T03:15:11;10.73;;;9.55;;
63943;SDS011;50121;51.218;7.664;2024-01-30T03:17:38;11.77;;;9.52;;
63943;SDS011;50121;51.218;7.664;2024-01-30T03:20:06;10.63;;;9.57;;
63943;SDS011;50121;51.218;7.664;2024-01-30T03:22:34;13.07;;;9.45;;
63943;SDS011;50121;51.218;7.664;2024-01-30T03:25:02;12.55;;;9.40;;
63943;SDS011;50121;51.218;7.664;2024-01-30T03:27:33;12.35;;;10.15;;
63943;SDS011;50121;51.218;7.664;2024-01-30T03:30:03;13.40;;;9.95;;
63943;SDS011;50121;51.218;7.664;2024-01-30T03:32:31;10.18;;;8.73;;
63943;SDS011;50121;51.218;7.664;2024-01-30T03:34:59;12.88;;;9.95;;
63943;SDS011;50121;51.218;7.664;2024-01-30T03:37:27;13.25;;;9.77;;
63943;SDS011;50121;51.218;7.664;2024-01-30T03:39:57;11.50;;;9.13;;
63943;SDS011;50121;51.218;7.664;2024-01-30T03:42:26;10.15;;;9.25;;
63943;SDS011;50121;51.218;7.664;2024-01-30T03:44:53;10.43;;;9.35;;
63943;SDS011;50121;51.218;7.664;2024-01-30T03:47:21;10.20;;;8.98;;
63943;SDS011;50121;51.218;7.664;2024-01-30T03:49:53;10.43;;;9.38;;
63943;SDS011;50121;51.218;7.664;2024-01-30T03:52:25;11.20;;;8.98;;
63943;SDS011;50121;51.218;7.664;2024-01-30T03:54:52;12.60;;;8.73;;
63943;SDS011;50121;51.218;7.664;2024-01-30T03:57:20;12.30;;;9.00;;
63943;SDS011;50121;51.218;7.664;2024-01-30T03:59:49;12.25;;;8.93;;
63943;SDS011;50121;51.218;7.664;2024-01-30T04:02:29;11.32;;;8.40;;
63943;SDS011;50121;51.218;7.664;2024-01-30T04:04:59;11.38;;;8.57;;
63943;SDS011;50121;51.218;7.664;2024-01-30T04:07:31;10.23;;;8.48;;
63943;SDS011;50121;51.218;7.664;2024-01-30T04:10:03;8.52;;;7.70;;
63943;SDS011;50121;51.218;7.664;2024-01-30T04:12:33;10.60;;;7.85;;
63943;SDS011;50121;51.218;7.664;2024-01-30T04:15:02;9.70;;;8.70;;
63943;SDS011;50121;51.218;7.664;2024-01-30T04:17:30;9.77;;;8.15;;
63943;SDS011;50121;51.218;7.664;2024-01-30T04:20:03;9.82;;;8.57;;
63943;SDS011;50121;51.218;7.664;2024-01-30T04:22:32;12.50;;;9.07;;
63943;SDS011;50121;51.218;7.664;2024-01-30T04:25:00;9.50;;;8.50;;
63943;SDS011;50121;51.218;7.664;2024-01-30T04:27:32;9.63;;;8.63;;
63943;SDS011;50121;51.218;7.664;2024-01-30T04:30:05;12.85;;;9.40;;
63943;SDS011;50121;51.218;7.664;2024-01-30T04:32:38;10.68;;;8.55;;
63943;SDS011;50121;51.218;7.664;2024-01-30T04:35:06;9.80;;;8.60;;
63943;SDS011;50121;51.218;7.664;2024-01-30T04:37:35;9.70;;;8.70;;
63943;SDS011;50121;51.218;7.664;2024-01-30T04:40:04;12.65;;;8.55;;
63943;SDS011;50121;51.218;7.664;2024-01-30T04:42:38;10.70;;;9.30;;
63943;SDS011;50121;51.218;7.664;2024-01-30T04:45:09;10.85;;;8.45;;
63943;SDS011;50121;51.218;7.664;2024-01-30T04:47:37;8.75;;;7.85;;
63943;SDS011;50121;51.218;7.664;2024-01-30T04:50:06;9.57;;;7.70;;
63943;SDS011;50121;51.218;7.664;2024-01-30T04:52:35;10.45;;;8.60;;
63943;SDS011;50121;51.218;7.664;2024-01-30T04:55:04;9.15;;;8.25;;
63943;SDS011;50121;51.218;7.664;2024-01-30T04:57:32;11.73;;;8.88;;
63943;SDS011;50121;51.218;7.664;2024-01-30T05:00:00;9.35;;;8.45;;
63943;SDS011;50121;51.218;7.664;2024-01-30T05:02:28;11.10;;;8.60;;
63943;SDS011;50121;51.218;7.664;2024-01-30T05:04:56;11.23;;;9.15;;
63943;SDS011;50121;51.218;7.664;2024-01-30T05:07:26;9.45;;;8.45;;
63943;SDS011;50121;51.218;7.664;2024-01-30T05:10:00;10.75;;;7.85;;
63943;SDS011;50121;51.218;7.664;2024-01-30T05:12:31;9.85;;;8.30;;
63943;SDS011;50121;51.218;7.664;2024-01-30T05:14:58;11.75;;;8.45;;
63943;SDS011;50121;51.218;7.664;2024-01-30T05:17:26;9.10;;;8.20;;
63943;SDS011;50121;51.218;7.664;2024-01-30T05:19:54;10.27;;;8.15;;
63943;SDS011;50121;51.218;7.664;2024-01-30T05:22:21;10.18;;;8.27;;
63943;SDS011;50121;51.218;7.664;2024-01-30T05:24:51;8.85;;;7.95;;
63943;SDS011;50121;51.218;7.664;2024-01-30T05:27:31;11.48;;;8.77;;
63943;SDS011;50121;51.218;7.664;2024-01-30T05:30:09;10.18;;;8.20;;
63943;SDS011;50121;51.218;7.664;2024-01-30T05:32:37;10.80;;;8.23;;
63943;SDS011;50121;51.218;7.664;2024-01-30T05:35:05;8.93;;;8.10;;
63943;SDS011;50121;51.218;7.664;2024-01-30T05:37:35;11.20;;;8.80;;
63943;SDS011;50121;51.218;7.664;2024-01-30T05:40:03;9.88;;;8.57;;
63943;SDS011;50121;51.218;7.664;2024-01-30T05:42:31;10.48;;;8.85;;
63943;SDS011;50121;51.218;7.664;2024-01-30T05:45:01;11.30;;;8.65;;
63943;SDS011;50121;51.218;7.664;2024-01-30T05:47:30;10.45;;;9.30;;
63943;SDS011;50121;51.218;7.664;2024-01-30T05:49:58;10.63;;;8.88;;
63943;SDS011;50121;51.218;7.664;2024-01-30T05:52:26;10.27;;;9.27;;
63943;SDS011;50121;51.218;7.664;2024-01-30T05:54:57;11.25;;;8.13;;
63943;SDS011;50121;51.218;7.664;2024-01-30T05:57:25;10.07;;;8.15;;
63943;SDS011;50121;51.218;7.664;2024-01-30T06:00:01;9.63;;;8.63;;
63943;SDS011;50121;51.218;7.664;2024-01-30T06:02:32;24.05;;;17.88;;
63943;SDS011;50121;51.218;7.664;2024-01-30T06:05:08;10.00;;;9.00;;
63943;SDS011;50121;51.218;7.664;2024-01-30T06:07:43;10.15;;;8.30;;
63943;SDS011;50121;51.218;7.664;2024-01-30T06:10:22;9.73;;;8.70;;
63943;SDS011;50121;51.218;7.664;2024-01-30T06:12:52;9.68;;;8.40;;
63943;SDS011;50121;51.218;7.664;2024-01-30T06:15:24;9.90;;;8.65;;
63943;SDS011;50121;51.218;7.664;2024-01-30T06:17:56;11.27;;;8.88;;
63943;SDS011;50121;51.218;7.664;2024-01-30T06:20:24;39.25;;;24.52;;
63943;SDS011;50121;51.218;7.664;2024-01-30T06:22:57;11.93;;;9.40;;
63943;SDS011;50121;51.218;7.664;2024-01-30T06:25:25;11.50;;;8.63;;
63943;SDS011;50121;51.218;7.664;2024-01-30T06:27:56;9.35;;;8.45;;
63943;SDS011;50121;51.218;7.664;2024-01-30T06:30:25;10.25;;;9.05;;
63943;SDS011;50121;51.218;7.664;2024-01-30T06:32:53;9.57;;;8.50;;
63943;SDS011;50121;51.218;7.664;2024-01-30T06:35:21;10.25;;;9.13;;
63943;SDS011;50121;51.218;7.664;2024-01-30T06:40:26;12.82;;;8.73;;
63943;SDS011;50121;51.218;7.664;2024-01-30T06:42:55;11.88;;;9.13;;
63943;SDS011;50121;51.218;7.664;2024-01-30T06:45:23;11.52;;;9.27;;
63943;SDS011;50121;51.218;7.664;2024-01-30T06:47:52;12.52;;;9.90;;
63943;SDS011;50121;51.218;7.664;2024-01-30T06:50:19;12.23;;;10.20;;
63943;SDS011;50121;51.218;7.664;2024-01-30T06:52:47;9.82;;;8.50;;
63943;SDS011;50121;51.218;7.664;2024-01-30T06:57:48;9.25;;;8.20;;
63943;SDS011;50121;51.218;7.664;2024-01-30T07:00:17;8.93;;;8.07;;
63943;SDS011;50121;51.218;7.664;2024-01-30T07:02:47;10.45;;;9.50;;
63943;SDS011;50121;51.218;7.664;2024-01-30T07:05:15;10.10;;;9.02;;
63943;SDS011;50121;51.218;7.664;2024-01-30T07:07:44;9.85;;;8.95;;
63943;SDS011;50121;51.218;7.664;2024-01-30T07:10:11;11.55;;;10.30;;
63943;SDS011;50121;51.218;7.664;2024-01-30T07:12:39;12.50;;;9.73;;
63943;SDS011;50121;51.218;7.664;2024-01-30T07:15:07;12.27;;;9.10;;
63943;SDS011;50121;51.218;7.664;2024-01-30T07:17:35;9.82;;;8.82;;
63943;SDS011;50121;51.218;7.664;2024-01-30T07:20:06;10.40;;;9.25;;
63943;SDS011;50121;51.218;7.664;2024-01-30T07:22:34;10.27;;;9.15;;
63943;SDS011;50121;51.218;7.664;2024-01-30T07:25:05;12.30;;;9.25;;
63943;SDS011;50121;51.218;7.664;2024-01-30T07:27:34;10.50;;;9.23;;
63943;SDS011;50121;51.218;7.664;2024-01-30T07:30:05;10.32;;;8.70;;
63943;SDS011;50121;51.218;7.664;2024-01-30T07:32:34;9.95;;;9.00;;
63943;SDS011;50121;51.218;7.664;2024-01-30T07:35:02;10.55;;;9.48;;
63943;SDS011;50121;51.218;7.664;2024-01-30T07:37:32;9.93;;;8.93;;
63943;SDS011;50121;51.218;7.664;2024-01-30T07:40:00;12.13;;;9.65;;
63943;SDS011;50121;51.218;7.664;2024-01-30T07:42:28;9.95;;;8.95;;
63943;SDS011;50121;51.218;7.664;2024-01-30T07:44:56;10.30;;;9.27;;
63943;SDS011;50121;51.218;7.664;2024-01-30T07:47:24;15.52;;;9.75;;
63943;SDS011;50121;51.218;7.664;2024-01-30T07:49:52;10.10;;;9.10;;
63943;SDS011;50121;51.218;7.664;2024-01-30T07:52:21;9.75;;;8.55;;
63943;SDS011;50121;51.218;7.664;2024-01-30T07:54:48;10.65;;;7.70;;
63943;SDS011;50121;51.218;7.664;2024-01-30T07:57:17;9.95;;;7.70;;
63943;SDS011;50121;51.218;7.664;2024-01-30T07:59:45;11.85;;;7.82;;
63943;SDS011;50121;51.218;7.664;2024-01-30T08:02:13;11.95;;;8.20;;
63943;SDS011;50121;51.218;7.664;2024-01-30T08:04:41;9.35;;;8.35;;
63943;SDS011;50121;51.218;7.664;2024-01-30T08:07:08;9.32;;;8.23;;
63943;SDS011;50121;51.218;7.664;2024-01-30T08:09:36;10.27;;;8.15;;
63943;SDS011;50121;51.218;7.664;2024-01-30T08:12:04;10.70;;;7.88;;
63943;SDS011;50121;51.218;7.664;2024-01-30T08:14:32;8.90;;;8.00;;
63943;SDS011;50121;51.218;7.664;2024-01-30T08:17:00;9.73;;;7.85;;
63943;SDS011;50121;51.218;7.664;2024-01-30T08:19:28;8.77;;;7.55;;
63943;SDS011;50121;51.218;7.664;2024-01-30T08:21:55;8.73;;;7.82;;
63943;SDS011;50121;51.218;7.664;2024-01-30T08:24:23;8.63;;;7.78;;
63943;SDS011;50121;51.218;7.664;2024-01-30T08:26:51;11.45;;;8.30;;
63943;SDS011;50121;51.218;7.664;2024-01-30T08:29:18;10.45;;;8.00;;
63943;SDS011;50121;51.218;7.664;2024-01-30T08:31:46;9.50;;;7.80;;
63943;SDS011;50121;51.218;7.664;2024-01-30T08:34:15;10.18;;;7.95;;
63943;SDS011;50121;51.218;7.664;2024-01-30T08:36:42;8.70;;;7.65;;
63943;SDS011;50121;51.218;7.664;2024-01-30T08:39:11;9.70;;;8.00;;
63943;SDS011;50121;51.218;7.664;2024-01-30T08:41:38;11.00;;;8.43;;
63943;SDS011;50121;51.218;7.664;2024-01-30T08:44:06;10.80;;;8.25;;
63943;SDS011;50121;51.218;7.664;2024-01-30T08:46:34;8.68;;;7.78;;
63943;SDS011;50121;51.218;7.664;2024-01-30T08:49:02;8.15;;;7.35;;
63943;SDS011;50121;51.218;7.664;2024-01-30T08:51:31;8.68;;;7.80;;
63943;SDS011;50121;51.218;7.664;2024-01-30T08:53:59;10.45;;;7.75;;
63943;SDS011;50121;51.218;7.664;2024-01-30T08:56:27;10.25;;;7.55;;
63943;SDS011;50121;51.218;7.664;2024-01-30T08:58:55;8.57;;;7.40;;
63943;SDS011;50121;51.218;7.664;2024-01-30T09:01:23;11.13;;;8.40;;
63943;SDS011;50121;51.218;7.664;2024-01-30T09:03:52;11.68;;;9.15;;
63943;SDS011;50121;51.218;7.664;2024-01-30T09:06:20;8.98;;;8.00;;
63943;SDS011;50121;51.218;7.664;2024-01-30T09:08:47;8.98;;;8.07;;
63943;SDS011;50121;51.218;7.664;2024-01-30T09:11:15;12.02;;;9.20;;
63943;SDS011;50121;51.218;7.664;2024-01-30T09:13:43;10.00;;;8.32;;
63943;SDS011;50121;51.218;7.664;2024-01-30T09:16:11;8.85;;;8.00;;
63943;SDS011;50121;51.218;7.664;2024-01-30T09:18:39;10.02;;;7.88;;
63943;SDS011;50121;51.218;7.664;2024-01-30T09:21:07;9.85;;;8.43;;
63943;SDS011;50121;51.218;7.664;2024-01-30T09:23:35;9.27;;;8.15;;
63943;SDS011;50121;51.218;7.664;2024-01-30T09:26:03;10.23;;;8.20;;
63943;SDS011;50121;51.218;7.664;2024-01-30T09:28:30;9.15;;;7.97;;
63943;SDS011;50121;51.218;7.664;2024-01-30T09:30:58;10.43;;;8.20;;
63943;SDS011;50121;51.218;7.664;2024-01-30T09:33:26;11.13;;;8.55;;
63943;SDS011;50121;51.218;7.664;2024-01-30T09:35:54;10.38;;;8.57;;
63943;SDS011;50121;51.218;7.664;2024-01-30T09:38:23;10.50;;;8.70;;
63943;SDS011;50121;51.218;7.664;2024-01-30T09:40:52;8.50;;;7.70;;
63943;SDS011;50121;51.218;7.664;2024-01-30T09:43:31;9.27;;;8.27;;
63943;SDS011;50121;51.218;7.664;2024-01-30T09:46:01;9.32;;;8.32;;
63943;SDS011;50121;51.218;7.664;2024-01-30T09:48:30;9.70;;;8.70;;
63943;SDS011;50121;51.218;7.664;2024-01-30T09:50:58;9.07;;;8.05;;
63943;SDS011;50121;51.218;7.664;2024-01-30T09:53:26;10.07;;;8.60;;
63943;SDS011;50121;51.218;7.664;2024-01-30T09:55:54;9.85;;;8.93;;
63943;SDS011;50121;51.218;7.664;2024-01-30T09:58:21;9.73;;;8.73;;
63943;SDS011;50121;51.218;7.664;2024-01-30T10:00:49;10.38;;;9.23;;
63943;SDS011;50121;51.218;7.664;2024-01-30T10:03:17;11.27;;;9.50;;
63943;SDS011;50121;51.218;7.664;2024-01-30T10:05:50;10.38;;;8.75;;
63943;SDS011;50121;51.218;7.664;2024-01-30T10:08:19;11.02;;;9.98;;
63943;SDS011;50121;51.218;7.664;2024-01-30T10:10:49;10.05;;;8.90;;
63943;SDS011;50121;51.218;7.664;2024-01-30T10:13:17;9.65;;;8.70;;
63943;SDS011;50121;51.218;7.664;2024-01-30T10:15:47;13.43;;;11.77;;
63943;SDS011;50121;51.218;7.664;2024-01-30T10:18:15;10.50;;;9.50;;
63943;SDS011;50121;51.218;7.664;2024-01-30T10:20:42;12.90;;;10.30;;
63943;SDS011;50121;51.218;7.664;2024-01-30T10:23:10;12.13;;;9.80;;
63943;SDS011;50121;51.218;7.664;2024-01-30T10:25:39;11.05;;;9.77;;
63943;SDS011;50121;51.218;7.664;2024-01-30T10:28:07;10.57;;;9.50;;
63943;SDS011;50121;51.218;7.664;2024-01-30T10:30:34;10.73;;;9.00;;
63943;SDS011;50121;51.218;7.664;2024-01-30T10:33:02;14.05;;;9.20;;
63943;SDS011;50121;51.218;7.664;2024-01-30T10:35:32;9.50;;;8.60;;
63943;SDS011;50121;51.218;7.664;2024-01-30T10:38:03;11.15;;;9.98;;
63943;SDS011;50121;51.218;7.664;2024-01-30T10:40:32;11.70;;;10.20;;
63943;SDS011;50121;51.218;7.664;2024-01-30T10:43:01;12.77;;;10.23;;
63943;SDS011;50121;51.218;7.664;2024-01-30T10:45:30;11.85;;;10.65;;
63943;SDS011;50121;51.218;7.664;2024-01-30T10:47:59;11.13;;;10.02;;
63943;SDS011;50121;51.218;7.664;2024-01-30T10:50:27;12.30;;;10.00;;
63943;SDS011;50121;51.218;7.664;2024-01-30T10:52:56;10.73;;;9.63;;
63943;SDS011;50121;51.218;7.664;2024-01-30T10:55:25;10.98;;;9.88;;
63943;SDS011;50121;51.218;7.664;2024-01-30T10:57:55;11.65;;;9.75;;
63943;SDS011;50121;51.218;7.664;2024-01-30T11:00:23;12.07;;;9.23;;
63943;SDS011;50121;51.218;7.664;2024-01-30T11:02:52;12.13;;;9.57;;
63943;SDS011;50121;51.218;7.664;2024-01-30T11:05:24;12.80;;;10.48;;
63943;SDS011;50121;51.218;7.664;2024-01-30T11:07:57;10.70;;;9.63;;
63943;SDS011;50121;51.218;7.664;2024-01-30T11:10:24;11.32;;;10.00;;
63943;SDS011;50121;51.218;7.664;2024-01-30T11:12:52;10.13;;;9.13;;
63943;SDS011;50121;51.218;7.664;2024-01-30T11:15:20;10.55;;;9.48;;
63943;SDS011;50121;51.218;7.664;2024-01-30T11:20:20;11.27;;;10.07;;
63943;SDS011;50121;51.218;7.664;2024-01-30T11:22:52;12.55;;;10.38;;
63943;SDS011;50121;51.218;7.664;2024-01-30T11:25:20;11.02;;;9.93;;
63943;SDS011;50121;51.218;7.664;2024-01-30T11:27:51;11.10;;;9.95;;
63943;SDS011;50121;51.218;7.664;2024-01-30T11:30:26;11.93;;;10.73;;
63943;SDS011;50121;51.218;7.664;2024-01-30T11:33:09;12.88;;;10.07;;
63943;SDS011;50121;51.218;7.664;2024-01-30T11:35:41;10.43;;;9.43;;
63943;SDS011;50121;51.218;7.664;2024-01-30T11:38:10;14.73;;;10.38;;
63943;SDS011;50121;51.218;7.664;2024-01-30T11:40:38;10.98;;;9.88;;
63943;SDS011;50121;51.218;7.664;2024-01-30T11:43:08;14.63;;;10.27;;
63943;SDS011;50121;51.218;7.664;2024-01-30T11:45:36;11.93;;;10.82;;
63943;SDS011;50121;51.218;7.664;2024-01-30T11:48:04;12.07;;;10.80;;
63943;SDS011;50121;51.218;7.664;2024-01-30T11:50:33;14.82;;;11.65;;
63943;SDS011;50121;51.218;7.664;2024-01-30T11:53:01;11.20;;;10.07;;
63943;SDS011;50121;51.218;7.664;2024-01-30T11:55:29;12.70;;;10.52;;
63943;SDS011;50121;51.218;7.664;2024-01-30T11:57:59;11.93;;;10.57;;
63943;SDS011;50121;51.218;7.664;2024-01-30T12:00:27;14.02;;;11.75;;
63943;SDS011;50121;51.218;7.664;2024-01-30T12:02:55;13.30;;;10.90;;
63943;SDS011;50121;51.218;7.664;2024-01-30T12:05:24;14.10;;;12.27;;
63943;SDS011;50121;51.218;7.664;2024-01-30T12:07:52;13.98;;;11.43;;
63943;SDS011;50121;51.218;7.664;2024-01-30T12:10:20;12.30;;;10.95;;
63943;SDS011;50121;51.218;7.664;2024-01-30T12:12:51;13.82;;;11.07;;
63943;SDS011;50121;51.218;7.664;2024-01-30T12:15:21;12.07;;;10.73;;
63943;SDS011;50121;51.218;7.664;2024-01-30T12:17:49;12.40;;;10.80;;
63943;SDS011;50121;51.218;7.664;2024-01-30T12:20:18;11.95;;;10.75;;
63943;SDS011;50121;51.218;7.664;2024-01-30T12:22:47;14.00;;;12.35;;
63943;SDS011;50121;51.218;7.664;2024-01-30T12:25:16;13.13;;;11.05;;
63943;SDS011;50121;51.218;7.664;2024-01-30T12:27:48;11.82;;;10.32;;
63943;SDS011;50121;51.218;7.664;2024-01-30T12:30:30;12.48;;;11.20;;
63943;SDS011;50121;51.218;7.664;2024-01-30T12:33:06;11.27;;;10.18;;
63943;SDS011;50121;51.218;7.664;2024-01-30T12:35:37;11.45;;;10.02;;
63943;SDS011;50121;51.218;7.664;2024-01-30T12:38:09;13.32;;;9.70;;
63943;SDS011;50121;51.218;7.664;2024-01-30T12:40:38;12.80;;;9.80;;
63943;SDS011;50121;51.218;7.664;2024-01-30T12:43:13;12.95;;;10.15;;
63943;SDS011;50121;51.218;7.664;2024-01-30T12:45:47;11.73;;;10.43;;
63943;SDS011;50121;51.218;7.664;2024-01-30T12:48:15;13.45;;;10.50;;
63943;SDS011;50121;51.218;7.664;2024-01-30T12:50:44;13.25;;;10.15;;
63943;SDS011;50121;51.218;7.664;2024-01-30T12:53:12;12.20;;;10.55;;
63943;SDS011;50121;51.218;7.664;2024-01-30T12:58:36;14.27;;;10.87;;
63943;SDS011;50121;51.218;7.664;2024-01-30T13:01:04;11.80;;;10.23;;
63943;SDS011;50121;51.218;7.664;2024-01-30T13:03:31;11.95;;;10.20;;
63943;SDS011;50121;51.218;7.664;2024-01-30T13:06:00;12.18;;;10.98;;
63943;SDS011;50121;51.218;7.664;2024-01-30T13:08:28;13.35;;;10.32;;
63943;SDS011;50121;51.218;7.664;2024-01-30T13:11:08;13.80;;;10.48;;
63943;SDS011;50121;51.218;7.664;2024-01-30T13:13:50;11.80;;;10.60;;
63943;SDS011;50121;51.218;7.664;2024-01-30T13:16:21;12.75;;;10.68;;
63943;SDS011;50121;51.218;7.664;2024-01-30T13:18:50;11.05;;;9.45;;
63943;SDS011;50121;51.218;7.664;2024-01-30T13:21:18;11.80;;;10.40;;
63943;SDS011;50121;51.218;7.664;2024-01-30T13:23:46;16.70;;;11.45;;
63943;SDS011;50121;51.218;7.664;2024-01-30T13:26:14;14.73;;;12.88;;
63943;SDS011;50121;51.218;7.664;2024-01-30T13:28:42;15.05;;;12.50;;
63943;SDS011;50121;51.218;7.664;2024-01-30T13:31:12;14.35;;;10.68;;
63943;SDS011;50121;51.218;7.664;2024-01-30T13:33:41;14.45;;;11.10;;
63943;SDS011;50121;51.218;7.664;2024-01-30T13:36:09;13.00;;;10.73;;
63943;SDS011;50121;51.218;7.664;2024-01-30T13:38:38;12.88;;;10.90;;
63943;SDS011;50121;51.218;7.664;2024-01-30T13:41:06;13.73;;;11.98;;
63943;SDS011;50121;51.218;7.664;2024-01-30T13:43:34;15.55;;;11.20;;
63943;SDS011;50121;51.218;7.664;2024-01-30T13:46:02;17.95;;;12.02;;
63943;SDS011;50121;51.218;7.664;2024-01-30T13:48:31;14.40;;;11.57;;
63943;SDS011;50121;51.218;7.664;2024-01-30T13:50:59;15.25;;;13.75;;
63943;SDS011;50121;51.218;7.664;2024-01-30T13:53:27;14.95;;;11.80;;
63943;SDS011;50121;51.218;7.664;2024-01-30T13:55:59;13.90;;;11.73;;
63943;SDS011;50121;51.218;7.664;2024-01-30T13:58:27;12.38;;;11.10;;
63943;SDS011;50121;51.218;7.664;2024-01-30T14:00:56;13.15;;;11.75;;
63943;SDS011;50121;51.218;7.664;2024-01-30T14:03:27;15.07;;;12.25;;
63943;SDS011;50121;51.218;7.664;2024-01-30T14:06:09;14.05;;;11.07;;
63943;SDS011;50121;51.218;7.664;2024-01-30T14:08:52;14.55;;;12.43;;
63943;SDS011;50121;51.218;7.664;2024-01-30T14:11:23;13.38;;;11.98;;
63943;SDS011;50121;51.218;7.664;2024-01-30T14:13:51;13.68;;;12.10;;
63943;SDS011;50121;51.218;7.664;2024-01-30T14:16:19;13.93;;;11.48;;
63943;SDS011;50121;51.218;7.664;2024-01-30T14:18:51;16.25;;;11.95;;
63943;SDS011;50121;51.218;7.664;2024-01-30T14:21:24;18.88;;;12.55;;
63943;SDS011;50121;51.218;7.664;2024-01-30T14:23:58;15.38;;;11.60;;
63943;SDS011;50121;51.218;7.664;2024-01-30T14:26:32;18.40;;;13.45;;
63943;SDS011;50121;51.218;7.664;2024-01-30T14:29:01;15.90;;;12.75;;
63943;SDS011;50121;51.218;7.664;2024-01-30T14:31:29;16.83;;;12.35;;
63943;SDS011;50121;51.218;7.664;2024-01-30T14:33:57;15.85;;;13.85;;
63943;SDS011;50121;51.218;7.664;2024-01-30T14:36:28;16.90;;;12.30;;
63943;SDS011;50121;51.218;7.664;2024-01-30T14:38:56;18.30;;;12.48;;
63943;SDS011;50121;51.218;7.664;2024-01-30T14:41:25;17.15;;;12.57;;
63943;SDS011;50121;51.218;7.664;2024-01-30T14:43:55;18.33;;;12.75;;
63943;SDS011;50121;51.218;7.664;2024-01-30T14:46:24;17.55;;;13.52;;
63943;SDS011;50121;51.218;7.664;2024-01-30T14:48:53;15.70;;;13.45;;
63943;SDS011;50121;51.218;7.664;2024-01-30T14:51:24;15.75;;;14.13;;
63943;SDS011;50121;51.218;7.664;2024-01-30T14:54:25;15.02;;;12.82;;
63943;SDS011;50121;51.218;7.664;2024-01-30T14:56:57;16.75;;;14.23;;
63943;SDS011;50121;51.218;7.664;2024-01-30T14:59:26;16.65;;;12.88;;
63943;SDS011;50121;51.218;7.664;2024-01-30T15:01:59;14.70;;;11.57;;